sensor_id;sensor_type;location;lat;lon;timestamp;P1;durP1;ratioP1;P2;durP2;ratioP2
16624;SDS011;8426;48.496;9.098;2023-05-16T00:02:03;6.40;;;3.78;;
16624;SDS011;8426;48.496;9.098;2023-05-16T00:07:08;7.03;;;4.28;;
16624;SDS011;8426;48.496;9.098;2023-05-16T00:12:12;8.23;;;4.13;;
16624;SDS011;8426;48.496;9.098;2023-05-16T00:17:16;9.32;;;4.03;;
16624;SDS011;8426;48.496;9.098;2023-05-16T00:22:27;8.02;;;4.00;;
16624;SDS011;8426;48.496;9.098;2023-05-16T00:27:32;5.88;;;4.15;;
16624;SDS011;8426;48.496;9.098;2023-05-16T00:32:40;6.22;;;3.70;;
16624;SDS011;8426;48.496;9.098;2023-05-16T00:37:43;5.78;;;4.20;;
16624;SDS011;8426;48.496;9.098;2023-05-16T00:42:48;6.20;;;4.25;;
16624;SDS011;8426;48.496;9.098;2023-05-16T00:47:59;6.13;;;3.67;;
16624;SDS011;8426;48.496;9.098;2023-05-16T00:53:02;5.80;;;3.92;;
16624;SDS011;8426;48.496;9.098;2023-05-16T00:58:07;12.57;;;4.10;;
16624;SDS011;8426;48.496;9.098;2023-05-16T01:03:13;5.47;;;3.13;;
16624;SDS011;8426;48.496;9.098;2023-05-16T01:08:18;6.68;;;4.20;;
16624;SDS011;8426;48.496;9.098;2023-05-16T01:13:23;5.32;;;3.20;;
16624;SDS011;8426;48.496;9.098;2023-05-16T01:18:39;6.13;;;3.58;;
16624;SDS011;8426;48.496;9.098;2023-05-16T01:23:50;6.72;;;4.60;;
16624;SDS011;8426;48.496;9.098;2023-05-16T01:28:59;6.53;;;3.70;;
16624;SDS011;8426;48.496;9.098;2023-05-16T01:34:05;6.38;;;4.10;;
16624;SDS011;8426;48.496;9.098;2023-05-16T01:39:10;6.25;;;4.03;;
16624;SDS011;8426;48.496;9.098;2023-05-16T01:44:21;6.43;;;3.72;;
16624;SDS011;8426;48.496;9.098;2023-05-16T01:49:32;7.60;;;4.47;;
16624;SDS011;8426;48.496;9.098;2023-05-16T01:54:41;8.18;;;4.63;;
16624;SDS011;8426;48.496;9.098;2023-05-16T01:59:49;8.27;;;4.35;;
16624;SDS011;8426;48.496;9.098;2023-05-16T02:04:53;11.13;;;5.68;;
16624;SDS011;8426;48.496;9.098;2023-05-16T02:09:56;7.53;;;4.90;;
16624;SDS011;8426;48.496;9.098;2023-05-16T02:15:01;9.85;;;5.57;;
16624;SDS011;8426;48.496;9.098;2023-05-16T02:20:06;6.80;;;4.82;;
16624;SDS011;8426;48.496;9.098;2023-05-16T02:25:10;9.27;;;5.75;;
16624;SDS011;8426;48.496;9.098;2023-05-16T02:30:16;8.40;;;4.85;;
16624;SDS011;8426;48.496;9.098;2023-05-16T02:35:22;7.78;;;4.82;;
16624;SDS011;8426;48.496;9.098;2023-05-16T02:40:26;7.10;;;4.78;;
16624;SDS011;8426;48.496;9.098;2023-05-16T02:45:33;8.98;;;4.80;;
16624;SDS011;8426;48.496;9.098;2023-05-16T02:50:37;9.30;;;5.72;;
16624;SDS011;8426;48.496;9.098;2023-05-16T02:55:42;10.05;;;6.20;;
16624;SDS011;8426;48.496;9.098;2023-05-16T03:00:48;11.45;;;5.97;;
16624;SDS011;8426;48.496;9.098;2023-05-16T03:05:52;14.88;;;7.72;;
16624;SDS011;8426;48.496;9.098;2023-05-16T03:10:56;14.98;;;7.97;;
16624;SDS011;8426;48.496;9.098;2023-05-16T03:16:01;25.83;;;11.77;;
16624;SDS011;8426;48.496;9.098;2023-05-16T03:21:04;22.67;;;11.18;;
16624;SDS011;8426;48.496;9.098;2023-05-16T03:26:08;35.40;;;16.80;;
16624;SDS011;8426;48.496;9.098;2023-05-16T03:31:13;27.17;;;15.40;;
16624;SDS011;8426;48.496;9.098;2023-05-16T03:36:16;36.72;;;18.00;;
16624;SDS011;8426;48.496;9.098;2023-05-16T03:41:19;45.60;;;20.50;;
16624;SDS011;8426;48.496;9.098;2023-05-16T03:46:24;32.85;;;15.52;;
16624;SDS011;8426;48.496;9.098;2023-05-16T03:51:28;35.47;;;17.08;;
16624;SDS011;8426;48.496;9.098;2023-05-16T03:56:33;39.88;;;17.67;;
16624;SDS011;8426;48.496;9.098;2023-05-16T04:01:38;31.10;;;14.70;;
16624;SDS011;8426;48.496;9.098;2023-05-16T04:06:42;32.75;;;14.32;;
16624;SDS011;8426;48.496;9.098;2023-05-16T04:11:45;30.77;;;14.88;;
16624;SDS011;8426;48.496;9.098;2023-05-16T04:16:50;33.13;;;14.25;;
16624;SDS011;8426;48.496;9.098;2023-05-16T04:21:56;37.50;;;17.33;;
16624;SDS011;8426;48.496;9.098;2023-05-16T04:26:59;48.20;;;19.17;;
16624;SDS011;8426;48.496;9.098;2023-05-16T04:32:06;53.22;;;23.40;;
16624;SDS011;8426;48.496;9.098;2023-05-16T04:37:10;56.25;;;24.30;;
16624;SDS011;8426;48.496;9.098;2023-05-16T04:42:13;47.67;;;19.88;;
16624;SDS011;8426;48.496;9.098;2023-05-16T04:47:18;49.35;;;22.25;;
16624;SDS011;8426;48.496;9.098;2023-05-16T04:52:21;47.03;;;21.70;;
16624;SDS011;8426;48.496;9.098;2023-05-16T04:57:27;39.00;;;18.38;;
16624;SDS011;8426;48.496;9.098;2023-05-16T05:02:34;33.97;;;16.17;;
16624;SDS011;8426;48.496;9.098;2023-05-16T05:07:40;36.20;;;17.13;;
16624;SDS011;8426;48.496;9.098;2023-05-16T05:12:45;44.83;;;20.48;;
16624;SDS011;8426;48.496;9.098;2023-05-16T05:17:50;44.80;;;21.00;;
16624;SDS011;8426;48.496;9.098;2023-05-16T05:22:55;46.03;;;21.17;;
16624;SDS011;8426;48.496;9.098;2023-05-16T05:28:00;52.05;;;23.08;;
16624;SDS011;8426;48.496;9.098;2023-05-16T05:33:13;46.70;;;21.02;;
16624;SDS011;8426;48.496;9.098;2023-05-16T05:38:18;43.05;;;20.13;;
16624;SDS011;8426;48.496;9.098;2023-05-16T05:43:22;50.58;;;21.45;;
16624;SDS011;8426;48.496;9.098;2023-05-16T05:48:27;42.90;;;21.17;;
16624;SDS011;8426;48.496;9.098;2023-05-16T05:53:38;48.90;;;21.33;;
16624;SDS011;8426;48.496;9.098;2023-05-16T05:58:47;45.20;;;21.80;;
16624;SDS011;8426;48.496;9.098;2023-05-16T06:03:54;45.78;;;22.40;;
16624;SDS011;8426;48.496;9.098;2023-05-16T06:09:00;46.55;;;21.80;;
16624;SDS011;8426;48.496;9.098;2023-05-16T06:14:04;49.03;;;21.50;;
16624;SDS011;8426;48.496;9.098;2023-05-16T06:19:11;50.63;;;22.17;;
16624;SDS011;8426;48.496;9.098;2023-05-16T06:24:18;46.42;;;21.88;;
16624;SDS011;8426;48.496;9.098;2023-05-16T06:29:25;42.03;;;20.45;;
16624;SDS011;8426;48.496;9.098;2023-05-16T06:34:30;46.58;;;23.58;;
16624;SDS011;8426;48.496;9.098;2023-05-16T06:39:35;45.05;;;21.85;;
16624;SDS011;8426;48.496;9.098;2023-05-16T06:44:41;48.63;;;21.95;;
16624;SDS011;8426;48.496;9.098;2023-05-16T06:49:46;41.88;;;20.85;;
16624;SDS011;8426;48.496;9.098;2023-05-16T06:55:13;43.72;;;21.52;;
16624;SDS011;8426;48.496;9.098;2023-05-16T07:00:19;40.30;;;20.90;;
16624;SDS011;8426;48.496;9.098;2023-05-16T07:05:24;49.60;;;21.88;;
16624;SDS011;8426;48.496;9.098;2023-05-16T07:10:31;46.58;;;21.60;;
16624;SDS011;8426;48.496;9.098;2023-05-16T07:15:35;36.75;;;19.08;;
16624;SDS011;8426;48.496;9.098;2023-05-16T07:20:40;39.00;;;20.20;;
16624;SDS011;8426;48.496;9.098;2023-05-16T07:25:48;41.20;;;18.58;;
16624;SDS011;8426;48.496;9.098;2023-05-16T07:31:00;36.38;;;18.58;;
16624;SDS011;8426;48.496;9.098;2023-05-16T07:36:05;36.28;;;18.88;;
16624;SDS011;8426;48.496;9.098;2023-05-16T07:41:15;34.95;;;17.67;;
16624;SDS011;8426;48.496;9.098;2023-05-16T07:46:18;32.78;;;17.27;;
16624;SDS011;8426;48.496;9.098;2023-05-16T07:51:24;32.33;;;15.75;;
16624;SDS011;8426;48.496;9.098;2023-05-16T07:56:27;29.15;;;15.18;;
16624;SDS011;8426;48.496;9.098;2023-05-16T08:01:30;30.08;;;15.65;;
16624;SDS011;8426;48.496;9.098;2023-05-16T08:06:37;29.08;;;15.45;;
16624;SDS011;8426;48.496;9.098;2023-05-16T08:11:40;34.35;;;16.15;;
16624;SDS011;8426;48.496;9.098;2023-05-16T08:16:45;28.88;;;15.07;;
16624;SDS011;8426;48.496;9.098;2023-05-16T08:21:50;35.60;;;15.30;;
16624;SDS011;8426;48.496;9.098;2023-05-16T08:26:54;25.33;;;13.57;;
16624;SDS011;8426;48.496;9.098;2023-05-16T08:32:21;24.23;;;12.70;;
16624;SDS011;8426;48.496;9.098;2023-05-16T08:37:34;20.45;;;11.63;;
16624;SDS011;8426;48.496;9.098;2023-05-16T08:42:38;21.02;;;10.52;;
16624;SDS011;8426;48.496;9.098;2023-05-16T08:47:44;20.10;;;10.23;;
16624;SDS011;8426;48.496;9.098;2023-05-16T08:52:55;21.52;;;10.38;;
16624;SDS011;8426;48.496;9.098;2023-05-16T08:58:04;21.33;;;10.80;;
16624;SDS011;8426;48.496;9.098;2023-05-16T09:03:16;16.58;;;9.60;;
16624;SDS011;8426;48.496;9.098;2023-05-16T09:08:27;17.67;;;9.82;;
16624;SDS011;8426;48.496;9.098;2023-05-16T09:13:39;16.45;;;9.88;;
16624;SDS011;8426;48.496;9.098;2023-05-16T09:18:46;23.92;;;11.32;;
16624;SDS011;8426;48.496;9.098;2023-05-16T09:24:02;16.33;;;9.80;;
16624;SDS011;8426;48.496;9.098;2023-05-16T09:29:10;22.95;;;11.00;;
16624;SDS011;8426;48.496;9.098;2023-05-16T09:34:17;23.73;;;12.07;;
16624;SDS011;8426;48.496;9.098;2023-05-16T09:39:29;22.35;;;11.73;;
16624;SDS011;8426;48.496;9.098;2023-05-16T09:44:32;20.90;;;11.00;;
16624;SDS011;8426;48.496;9.098;2023-05-16T09:49:37;21.25;;;11.40;;
16624;SDS011;8426;48.496;9.098;2023-05-16T09:54:45;23.80;;;12.68;;
16624;SDS011;8426;48.496;9.098;2023-05-16T09:59:52;19.17;;;11.10;;
16624;SDS011;8426;48.496;9.098;2023-05-16T10:04:58;20.77;;;10.55;;
16624;SDS011;8426;48.496;9.098;2023-05-16T10:10:07;20.42;;;11.00;;
16624;SDS011;8426;48.496;9.098;2023-05-16T10:15:11;20.00;;;11.18;;
16624;SDS011;8426;48.496;9.098;2023-05-16T10:20:17;20.73;;;11.00;;
16624;SDS011;8426;48.496;9.098;2023-05-16T10:25:25;18.90;;;10.20;;
16624;SDS011;8426;48.496;9.098;2023-05-16T10:30:32;16.95;;;9.73;;
16624;SDS011;8426;48.496;9.098;2023-05-16T10:35:38;20.75;;;10.82;;
16624;SDS011;8426;48.496;9.098;2023-05-16T10:40:48;18.85;;;10.88;;
16624;SDS011;8426;48.496;9.098;2023-05-16T10:45:56;17.50;;;9.85;;
16624;SDS011;8426;48.496;9.098;2023-05-16T10:56:40;18.27;;;10.52;;
16624;SDS011;8426;48.496;9.098;2023-05-16T11:01:44;20.75;;;11.02;;
16624;SDS011;8426;48.496;9.098;2023-05-16T11:07:05;20.38;;;10.15;;
16624;SDS011;8426;48.496;9.098;2023-05-16T11:12:15;18.73;;;11.57;;
16624;SDS011;8426;48.496;9.098;2023-05-16T11:17:24;18.30;;;10.50;;
16624;SDS011;8426;48.496;9.098;2023-05-16T11:22:31;21.48;;;10.85;;
16624;SDS011;8426;48.496;9.098;2023-05-16T11:27:42;21.25;;;11.50;;
16624;SDS011;8426;48.496;9.098;2023-05-16T11:32:47;20.90;;;11.35;;
16624;SDS011;8426;48.496;9.098;2023-05-16T11:37:52;18.48;;;10.82;;
16624;SDS011;8426;48.496;9.098;2023-05-16T11:42:59;20.35;;;10.68;;
16624;SDS011;8426;48.496;9.098;2023-05-16T11:48:06;21.88;;;12.70;;
16624;SDS011;8426;48.496;9.098;2023-05-16T11:53:29;21.95;;;11.75;;
16624;SDS011;8426;48.496;9.098;2023-05-16T11:58:33;24.13;;;13.40;;
16624;SDS011;8426;48.496;9.098;2023-05-16T12:03:52;24.70;;;12.65;;
16624;SDS011;8426;48.496;9.098;2023-05-16T12:09:10;18.35;;;10.52;;
16624;SDS011;8426;48.496;9.098;2023-05-16T12:14:40;29.15;;;13.00;;
16624;SDS011;8426;48.496;9.098;2023-05-16T12:19:45;22.08;;;11.63;;
16624;SDS011;8426;48.496;9.098;2023-05-16T12:24:52;23.13;;;10.05;;
16624;SDS011;8426;48.496;9.098;2023-05-16T12:29:58;15.07;;;7.10;;
16624;SDS011;8426;48.496;9.098;2023-05-16T12:35:04;13.90;;;7.95;;
16624;SDS011;8426;48.496;9.098;2023-05-16T12:40:13;14.00;;;6.95;;
16624;SDS011;8426;48.496;9.098;2023-05-16T12:45:20;14.60;;;7.45;;
16624;SDS011;8426;48.496;9.098;2023-05-16T12:50:25;12.88;;;7.05;;
16624;SDS011;8426;48.496;9.098;2023-05-16T12:55:34;13.82;;;7.43;;
16624;SDS011;8426;48.496;9.098;2023-05-16T13:00:40;15.32;;;7.25;;
16624;SDS011;8426;48.496;9.098;2023-05-16T13:05:46;14.27;;;7.22;;
16624;SDS011;8426;48.496;9.098;2023-05-16T13:10:49;14.35;;;8.05;;
16624;SDS011;8426;48.496;9.098;2023-05-16T13:15:57;14.82;;;7.35;;
16624;SDS011;8426;48.496;9.098;2023-05-16T13:21:26;12.98;;;7.07;;
16624;SDS011;8426;48.496;9.098;2023-05-16T13:26:32;14.85;;;7.22;;
16624;SDS011;8426;48.496;9.098;2023-05-16T13:31:47;12.45;;;6.70;;
16624;SDS011;8426;48.496;9.098;2023-05-16T13:36:58;13.52;;;6.93;;
16624;SDS011;8426;48.496;9.098;2023-05-16T13:42:03;11.23;;;6.78;;
16624;SDS011;8426;48.496;9.098;2023-05-16T13:47:08;12.27;;;6.63;;
16624;SDS011;8426;48.496;9.098;2023-05-16T13:52:12;8.88;;;5.03;;
16624;SDS011;8426;48.496;9.098;2023-05-16T13:57:17;12.30;;;4.32;;
16624;SDS011;8426;48.496;9.098;2023-05-16T14:02:25;7.20;;;3.92;;
16624;SDS011;8426;48.496;9.098;2023-05-16T14:07:31;6.20;;;4.18;;
16624;SDS011;8426;48.496;9.098;2023-05-16T14:12:35;5.55;;;4.00;;
16624;SDS011;8426;48.496;9.098;2023-05-16T14:17:41;7.85;;;4.07;;
16624;SDS011;8426;48.496;9.098;2023-05-16T14:23:09;6.55;;;3.63;;
16624;SDS011;8426;48.496;9.098;2023-05-16T14:28:15;4.82;;;3.22;;
16624;SDS011;8426;48.496;9.098;2023-05-16T14:33:21;5.75;;;2.85;;
16624;SDS011;8426;48.496;9.098;2023-05-16T14:38:31;4.53;;;2.78;;
16624;SDS011;8426;48.496;9.098;2023-05-16T14:43:36;6.03;;;2.67;;
16624;SDS011;8426;48.496;9.098;2023-05-16T14:48:42;10.02;;;2.80;;
16624;SDS011;8426;48.496;9.098;2023-05-16T14:53:47;4.95;;;2.40;;
16624;SDS011;8426;48.496;9.098;2023-05-16T14:58:51;7.30;;;2.58;;
16624;SDS011;8426;48.496;9.098;2023-05-16T15:04:05;5.80;;;2.28;;
16624;SDS011;8426;48.496;9.098;2023-05-16T15:09:09;3.33;;;2.42;;
16624;SDS011;8426;48.496;9.098;2023-05-16T15:14:15;3.65;;;2.00;;
16624;SDS011;8426;48.496;9.098;2023-05-16T15:19:22;6.75;;;2.30;;
16624;SDS011;8426;48.496;9.098;2023-05-16T15:24:28;3.10;;;1.80;;
16624;SDS011;8426;48.496;9.098;2023-05-16T15:29:33;3.63;;;2.28;;
16624;SDS011;8426;48.496;9.098;2023-05-16T15:34:42;2.85;;;1.95;;
16624;SDS011;8426;48.496;9.098;2023-05-16T15:39:47;5.68;;;1.73;;
16624;SDS011;8426;48.496;9.098;2023-05-16T15:44:54;5.15;;;1.90;;
16624;SDS011;8426;48.496;9.098;2023-05-16T15:50:05;9.15;;;5.03;;
16624;SDS011;8426;48.496;9.098;2023-05-16T15:55:11;5.30;;;2.20;;
16624;SDS011;8426;48.496;9.098;2023-05-16T16:00:17;3.90;;;1.88;;
16624;SDS011;8426;48.496;9.098;2023-05-16T16:05:22;3.88;;;1.92;;
16624;SDS011;8426;48.496;9.098;2023-05-16T16:10:26;2.55;;;2.03;;
16624;SDS011;8426;48.496;9.098;2023-05-16T16:15:32;7.00;;;3.10;;
16624;SDS011;8426;48.496;9.098;2023-05-16T16:20:39;8.27;;;2.83;;
16624;SDS011;8426;48.496;9.098;2023-05-16T16:25:49;6.57;;;3.40;;
16624;SDS011;8426;48.496;9.098;2023-05-16T16:30:53;3.17;;;2.20;;
16624;SDS011;8426;48.496;9.098;2023-05-16T16:35:58;3.03;;;1.52;;
16624;SDS011;8426;48.496;9.098;2023-05-16T16:41:07;5.20;;;1.97;;
16624;SDS011;8426;48.496;9.098;2023-05-16T16:46:15;3.55;;;2.10;;
16624;SDS011;8426;48.496;9.098;2023-05-16T16:51:21;6.15;;;1.50;;
16624;SDS011;8426;48.496;9.098;2023-05-16T16:56:27;4.72;;;1.67;;
16624;SDS011;8426;48.496;9.098;2023-05-16T17:01:43;8.98;;;1.52;;
16624;SDS011;8426;48.496;9.098;2023-05-16T17:06:55;5.32;;;1.73;;
16624;SDS011;8426;48.496;9.098;2023-05-16T17:12:01;11.65;;;1.23;;
16624;SDS011;8426;48.496;9.098;2023-05-16T17:17:11;2.97;;;0.98;;
16624;SDS011;8426;48.496;9.098;2023-05-16T17:22:23;9.45;;;1.65;;
16624;SDS011;8426;48.496;9.098;2023-05-16T17:27:31;7.00;;;2.15;;
16624;SDS011;8426;48.496;9.098;2023-05-16T17:32:38;7.80;;;2.05;;
16624;SDS011;8426;48.496;9.098;2023-05-16T17:37:45;4.75;;;1.27;;
16624;SDS011;8426;48.496;9.098;2023-05-16T17:42:53;5.88;;;1.60;;
16624;SDS011;8426;48.496;9.098;2023-05-16T17:47:57;6.90;;;1.40;;
16624;SDS011;8426;48.496;9.098;2023-05-16T17:53:02;3.85;;;1.40;;
16624;SDS011;8426;48.496;9.098;2023-05-16T17:58:11;7.13;;;1.50;;
16624;SDS011;8426;48.496;9.098;2023-05-16T18:03:15;10.15;;;1.40;;
16624;SDS011;8426;48.496;9.098;2023-05-16T18:08:21;16.23;;;5.50;;
16624;SDS011;8426;48.496;9.098;2023-05-16T18:13:25;26.15;;;6.68;;
16624;SDS011;8426;48.496;9.098;2023-05-16T18:18:32;58.00;;;13.57;;
16624;SDS011;8426;48.496;9.098;2023-05-16T18:23:41;8.77;;;2.15;;
16624;SDS011;8426;48.496;9.098;2023-05-16T18:28:44;4.95;;;1.40;;
16624;SDS011;8426;48.496;9.098;2023-05-16T18:33:48;4.50;;;1.45;;
16624;SDS011;8426;48.496;9.098;2023-05-16T18:38:55;2.45;;;1.15;;
16624;SDS011;8426;48.496;9.098;2023-05-16T18:43:59;8.68;;;1.35;;
16624;SDS011;8426;48.496;9.098;2023-05-16T18:49:04;8.38;;;1.58;;
16624;SDS011;8426;48.496;9.098;2023-05-16T18:54:11;4.55;;;1.10;;
16624;SDS011;8426;48.496;9.098;2023-05-16T18:59:16;1.80;;;0.90;;
16624;SDS011;8426;48.496;9.098;2023-05-16T19:04:22;5.82;;;1.10;;
16624;SDS011;8426;48.496;9.098;2023-05-16T19:09:27;3.78;;;1.00;;
16624;SDS011;8426;48.496;9.098;2023-05-16T19:14:33;6.60;;;1.38;;
16624;SDS011;8426;48.496;9.098;2023-05-16T19:19:36;3.25;;;1.20;;
16624;SDS011;8426;48.496;9.098;2023-05-16T19:24:44;9.27;;;1.58;;
16624;SDS011;8426;48.496;9.098;2023-05-16T19:29:47;7.40;;;1.30;;
16624;SDS011;8426;48.496;9.098;2023-05-16T19:34:52;7.68;;;1.20;;
16624;SDS011;8426;48.496;9.098;2023-05-16T19:39:58;7.53;;;1.20;;
16624;SDS011;8426;48.496;9.098;2023-05-16T19:45:02;8.00;;;1.55;;
16624;SDS011;8426;48.496;9.098;2023-05-16T19:50:10;5.70;;;1.42;;
16624;SDS011;8426;48.496;9.098;2023-05-16T19:55:16;4.38;;;1.30;;
16624;SDS011;8426;48.496;9.098;2023-05-16T20:00:20;6.18;;;1.08;;
16624;SDS011;8426;48.496;9.098;2023-05-16T20:05:27;3.85;;;0.88;;
16624;SDS011;8426;48.496;9.098;2023-05-16T20:10:32;4.03;;;0.82;;
16624;SDS011;8426;48.496;9.098;2023-05-16T20:15:36;8.77;;;0.95;;
16624;SDS011;8426;48.496;9.098;2023-05-16T20:20:41;4.38;;;1.00;;
16624;SDS011;8426;48.496;9.098;2023-05-16T20:25:46;4.70;;;1.00;;
16624;SDS011;8426;48.496;9.098;2023-05-16T20:30:52;1.73;;;0.80;;
16624;SDS011;8426;48.496;9.098;2023-05-16T20:35:57;4.05;;;0.80;;
16624;SDS011;8426;48.496;9.098;2023-05-16T20:41:04;4.45;;;0.95;;
16624;SDS011;8426;48.496;9.098;2023-05-16T20:46:08;8.98;;;0.77;;
16624;SDS011;8426;48.496;9.098;2023-05-16T20:51:11;4.43;;;0.90;;
16624;SDS011;8426;48.496;9.098;2023-05-16T20:56:16;5.03;;;1.10;;
16624;SDS011;8426;48.496;9.098;2023-05-16T21:01:20;2.92;;;0.90;;
16624;SDS011;8426;48.496;9.098;2023-05-16T21:06:26;2.70;;;0.80;;
16624;SDS011;8426;48.496;9.098;2023-05-16T21:11:33;6.55;;;0.70;;
16624;SDS011;8426;48.496;9.098;2023-05-16T21:16:37;4.47;;;0.85;;
16624;SDS011;8426;48.496;9.098;2023-05-16T21:21:41;2.90;;;0.82;;
16624;SDS011;8426;48.496;9.098;2023-05-16T21:26:47;4.38;;;0.80;;
16624;SDS011;8426;48.496;9.098;2023-05-16T21:31:57;5.10;;;0.82;;
16624;SDS011;8426;48.496;9.098;2023-05-16T21:37:01;5.60;;;0.80;;
16624;SDS011;8426;48.496;9.098;2023-05-16T21:42:07;4.50;;;0.90;;
16624;SDS011;8426;48.496;9.098;2023-05-16T21:47:13;7.32;;;0.93;;
16624;SDS011;8426;48.496;9.098;2023-05-16T21:52:16;6.28;;;1.00;;
16624;SDS011;8426;48.496;9.098;2023-05-16T21:57:27;6.00;;;0.80;;
16624;SDS011;8426;48.496;9.098;2023-05-16T22:02:32;7.18;;;0.77;;
16624;SDS011;8426;48.496;9.098;2023-05-16T22:07:36;6.32;;;0.73;;
16624;SDS011;8426;48.496;9.098;2023-05-16T22:12:41;4.90;;;0.80;;
16624;SDS011;8426;48.496;9.098;2023-05-16T22:17:45;1.75;;;0.63;;
16624;SDS011;8426;48.496;9.098;2023-05-16T22:22:54;2.35;;;0.68;;
16624;SDS011;8426;48.496;9.098;2023-05-16T22:28:02;1.38;;;0.73;;
16624;SDS011;8426;48.496;9.098;2023-05-16T22:33:07;5.68;;;0.90;;
16624;SDS011;8426;48.496;9.098;2023-05-16T22:38:10;2.78;;;0.75;;
16624;SDS011;8426;48.496;9.098;2023-05-16T22:43:15;4.47;;;0.73;;
16624;SDS011;8426;48.496;9.098;2023-05-16T22:48:19;2.05;;;1.00;;
16624;SDS011;8426;48.496;9.098;2023-05-16T22:53:23;2.10;;;0.82;;
16624;SDS011;8426;48.496;9.098;2023-05-16T22:58:29;1.10;;;0.70;;
16624;SDS011;8426;48.496;9.098;2023-05-16T23:03:32;6.05;;;1.02;;
16624;SDS011;8426;48.496;9.098;2023-05-16T23:08:38;4.00;;;0.55;;
16624;SDS011;8426;48.496;9.098;2023-05-16T23:13:45;1.58;;;0.70;;
16624;SDS011;8426;48.496;9.098;2023-05-16T23:18:48;4.15;;;0.70;;
16624;SDS011;8426;48.496;9.098;2023-05-16T23:23:52;3.17;;;0.68;;
16624;SDS011;8426;48.496;9.098;2023-05-16T23:28:57;1.65;;;0.80;;
16624;SDS011;8426;48.496;9.098;2023-05-16T23:34:01;3.13;;;0.80;;
16624;SDS011;8426;48.496;9.098;2023-05-16T23:39:05;3.10;;;0.75;;
16624;SDS011;8426;48.496;9.098;2023-05-16T23:44:12;2.50;;;0.80;;
16624;SDS011;8426;48.496;9.098;2023-05-16T23:49:15;5.20;;;1.40;;
16624;SDS011;8426;48.496;9.098;2023-05-16T23:54:18;3.38;;;0.98;;
16624;SDS011;8426;48.496;9.098;2023-05-16T23:59:23;14.10;;;1.10;;
